sensor_id;sensor_type;location;lat;lon;timestamp;pressure;altitude;pressure_sealevel;temperature;humidity
9523;BME280;63165;43.016;25.784;2023-03-11T00:00:20;98189.38;;;16.78;63.24
9523;BME280;63165;43.016;25.784;2023-03-11T00:02:50;98180.00;;;16.74;64.11
9523;BME280;63165;43.016;25.784;2023-03-11T00:05:20;98171.22;;;16.74;63.62
9523;BME280;63165;43.016;25.784;2023-03-11T00:07:49;98154.25;;;16.65;63.72
9523;BME280;63165;43.016;25.784;2023-03-11T00:10:20;98137.38;;;16.55;64.19
9523;BME280;63165;43.016;25.784;2023-03-11T00:12:49;98164.88;;;16.76;64.17
9523;BME280;63165;43.016;25.784;2023-03-11T00:15:16;98167.53;;;16.76;64.39
9523;BME280;63165;43.016;25.784;2023-03-11T00:17:44;98154.31;;;16.76;64.17
9523;BME280;63165;43.016;25.784;2023-03-11T00:20:16;98134.88;;;16.77;64.49
9523;BME280;63165;43.016;25.784;2023-03-11T00:22:43;98132.13;;;16.79;64.36
9523;BME280;63165;43.016;25.784;2023-03-11T00:25:11;98132.97;;;16.79;64.33
9523;BME280;63165;43.016;25.784;2023-03-11T00:27:40;98110.88;;;16.80;64.56
9523;BME280;63165;43.016;25.784;2023-03-11T00:30:09;98112.91;;;16.77;64.24
9523;BME280;63165;43.016;25.784;2023-03-11T00:32:37;98113.00;;;16.75;64.08
9523;BME280;63165;43.016;25.784;2023-03-11T00:35:06;98102.06;;;16.68;64.46
9523;BME280;63165;43.016;25.784;2023-03-11T00:37:34;98104.38;;;16.73;64.39
9523;BME280;63165;43.016;25.784;2023-03-11T00:40:01;98103.53;;;16.73;64.54
9523;BME280;63165;43.016;25.784;2023-03-11T00:42:33;98092.34;;;16.69;64.66
9523;BME280;63165;43.016;25.784;2023-03-11T00:45:02;98101.09;;;16.69;64.99
9523;BME280;63165;43.016;25.784;2023-03-11T00:47:30;98111.91;;;16.66;64.75
9523;BME280;63165;43.016;25.784;2023-03-11T00:49:57;98123.06;;;16.70;65.04
9523;BME280;63165;43.016;25.784;2023-03-11T00:52:25;98116.94;;;16.69;65.24
9523;BME280;63165;43.016;25.784;2023-03-11T00:54:53;98106.38;;;16.69;65.13
9523;BME280;63165;43.016;25.784;2023-03-11T00:57:20;98103.53;;;16.73;65.72
9523;BME280;63165;43.016;25.784;2023-03-11T00:59:48;98103.53;;;16.73;65.46
9523;BME280;63165;43.016;25.784;2023-03-11T01:02:17;98101.84;;;16.72;65.42
9523;BME280;63165;43.016;25.784;2023-03-11T01:04:44;98079.78;;;16.73;65.75
9523;BME280;63165;43.016;25.784;2023-03-11T01:07:12;98091.06;;;16.75;65.50
9523;BME280;63165;43.016;25.784;2023-03-11T01:09:39;98085.78;;;16.75;66.12
9523;BME280;63165;43.016;25.784;2023-03-11T01:12:06;98081.44;;;16.74;65.77
9523;BME280;63165;43.016;25.784;2023-03-11T01:14:34;98062.34;;;16.70;65.79
9523;BME280;63165;43.016;25.784;2023-03-11T01:17:01;98062.13;;;16.73;66.07
9523;BME280;63165;43.016;25.784;2023-03-11T01:19:30;98059.38;;;16.75;65.96
9523;BME280;63165;43.016;25.784;2023-03-11T01:21:58;98069.81;;;16.76;66.17
9523;BME280;63165;43.016;25.784;2023-03-11T01:24:25;98063.19;;;16.71;65.79
9523;BME280;63165;43.016;25.784;2023-03-11T01:26:53;98061.50;;;16.69;66.42
9523;BME280;63165;43.016;25.784;2023-03-11T01:29:20;98048.53;;;16.66;66.17
9523;BME280;63165;43.016;25.784;2023-03-11T01:31:47;98034.72;;;16.63;66.43
9523;BME280;63165;43.016;25.784;2023-03-11T01:34:15;98037.63;;;16.71;66.20
9523;BME280;63165;43.016;25.784;2023-03-11T01:36:43;98027.06;;;16.71;66.75
9523;BME280;63165;43.016;25.784;2023-03-11T01:39:11;98020.59;;;16.75;66.32
9523;BME280;63165;43.016;25.784;2023-03-11T01:41:38;98014.13;;;16.79;66.82
9523;BME280;63165;43.016;25.784;2023-03-11T01:44:06;98002.44;;;16.83;66.39
9523;BME280;63165;43.016;25.784;2023-03-11T01:46:38;98009.56;;;16.81;66.18
9523;BME280;63165;43.016;25.784;2023-03-11T01:49:26;98004.00;;;16.86;66.31
9523;BME280;63165;43.016;25.784;2023-03-11T01:51:58;97977.69;;;16.84;66.69
9523;BME280;63165;43.016;25.784;2023-03-11T01:54:31;97975.31;;;16.93;66.52
9523;BME280;63165;43.016;25.784;2023-03-11T01:57:00;97974.25;;;16.95;65.82
9523;BME280;63165;43.016;25.784;2023-03-11T01:59:31;97975.06;;;16.96;66.29
9523;BME280;63165;43.016;25.784;2023-03-11T02:02:04;97952.09;;;16.85;65.62
9523;BME280;63165;43.016;25.784;2023-03-11T02:04:36;97961.97;;;16.94;65.25
9523;BME280;63165;43.016;25.784;2023-03-11T02:07:06;97964.41;;;16.97;65.34
9523;BME280;63165;43.016;25.784;2023-03-11T02:09:35;97971.13;;;17.01;65.00
9523;BME280;63165;43.016;25.784;2023-03-11T02:12:03;97977.25;;;17.02;64.89
9523;BME280;63165;43.016;25.784;2023-03-11T02:14:32;97971.00;;;17.03;65.08
9523;BME280;63165;43.016;25.784;2023-03-11T02:17:00;97981.56;;;17.03;64.53
9523;BME280;63165;43.016;25.784;2023-03-11T02:19:34;97964.03;;;17.02;64.58
9523;BME280;63165;43.016;25.784;2023-03-11T02:22:06;97957.56;;;17.06;64.32
9523;BME280;63165;43.016;25.784;2023-03-11T02:24:39;97955.88;;;17.05;64.07
9523;BME280;63165;43.016;25.784;2023-03-11T02:27:13;97954.22;;;17.04;63.75
9523;BME280;63165;43.016;25.784;2023-03-11T02:29:43;97961.88;;;17.07;64.10
9523;BME280;63165;43.016;25.784;2023-03-11T02:32:13;97963.81;;;17.05;63.52
9523;BME280;63165;43.016;25.784;2023-03-11T02:34:41;97959.34;;;17.05;63.89
9523;BME280;63165;43.016;25.784;2023-03-11T02:37:10;97969.09;;;17.05;63.60
9523;BME280;63165;43.016;25.784;2023-03-11T02:39:39;97954.56;;;16.99;64.11
9523;BME280;63165;43.016;25.784;2023-03-11T02:42:13;97954.06;;;17.05;64.16
9523;BME280;63165;43.016;25.784;2023-03-11T02:44:43;97959.34;;;17.05;64.14
9523;BME280;63165;43.016;25.784;2023-03-11T02:47:11;97953.97;;;17.07;63.41
9523;BME280;63165;43.016;25.784;2023-03-11T02:49:39;97951.31;;;17.07;63.31
9523;BME280;63165;43.016;25.784;2023-03-11T02:52:07;97946.88;;;17.07;63.11
9523;BME280;63165;43.016;25.784;2023-03-11T02:54:34;97955.16;;;17.14;62.82
9523;BME280;63165;43.016;25.784;2023-03-11T02:57:02;97936.91;;;17.11;62.63
9523;BME280;63165;43.016;25.784;2023-03-11T02:59:31;97940.88;;;17.17;62.54
9523;BME280;63165;43.016;25.784;2023-03-11T03:01:58;97939.81;;;17.19;62.42
9523;BME280;63165;43.016;25.784;2023-03-11T03:04:26;97930.91;;;17.20;62.04
9523;BME280;63165;43.016;25.784;2023-03-11T03:06:53;97930.78;;;17.22;62.53
9523;BME280;63165;43.016;25.784;2023-03-11T03:09:20;97938.59;;;17.23;62.57
9523;BME280;63165;43.016;25.784;2023-03-11T03:11:48;97938.59;;;17.23;61.84
9523;BME280;63165;43.016;25.784;2023-03-11T03:14:15;97931.63;;;17.22;61.99
9523;BME280;63165;43.016;25.784;2023-03-11T03:16:44;97938.38;;;17.26;61.61
9523;BME280;63165;43.016;25.784;2023-03-11T03:19:11;97939.31;;;17.25;61.59
9523;BME280;63165;43.016;25.784;2023-03-11T03:21:39;97938.38;;;17.26;61.47
9523;BME280;63165;43.016;25.784;2023-03-11T03:24:07;97940.66;;;17.20;61.98
9523;BME280;63165;43.016;25.784;2023-03-11T03:26:35;97945.81;;;17.21;61.83
9523;BME280;63165;43.016;25.784;2023-03-11T03:29:02;97941.84;;;17.16;62.04
9523;BME280;63165;43.016;25.784;2023-03-11T03:31:30;97954.09;;;17.17;61.88
9523;BME280;63165;43.016;25.784;2023-03-11T03:33:59;97937.38;;;17.05;62.17
9523;BME280;63165;43.016;25.784;2023-03-11T03:36:27;97945.91;;;17.08;62.71
9523;BME280;63165;43.016;25.784;2023-03-11T03:38:54;97941.94;;;17.03;62.28
9523;BME280;63165;43.016;25.784;2023-03-11T03:41:22;97936.91;;;17.00;62.43
9523;BME280;63165;43.016;25.784;2023-03-11T03:43:49;97937.88;;;16.99;62.75
9523;BME280;63165;43.016;25.784;2023-03-11T03:46:16;97933.53;;;16.98;63.06
9523;BME280;63165;43.016;25.784;2023-03-11T03:48:44;97926.81;;;16.94;62.95
9523;BME280;63165;43.016;25.784;2023-03-11T03:51:13;97916.63;;;16.89;63.02
9523;BME280;63165;43.016;25.784;2023-03-11T03:53:41;97914.09;;;16.87;62.71
9523;BME280;63165;43.016;25.784;2023-03-11T03:56:10;97914.31;;;16.84;63.03
9523;BME280;63165;43.016;25.784;2023-03-11T03:58:37;97908.50;;;16.79;63.45
9523;BME280;63165;43.016;25.784;2023-03-11T04:01:06;97911.63;;;16.73;63.12
9523;BME280;63165;43.016;25.784;2023-03-11T04:03:34;97909.94;;;16.72;63.04
9523;BME280;63165;43.016;25.784;2023-03-11T04:06:06;97899.00;;;16.65;63.31
9523;BME280;63165;43.016;25.784;2023-03-11T04:08:36;97902.00;;;16.61;63.64
9523;BME280;63165;43.016;25.784;2023-03-11T04:11:05;97891.19;;;16.64;64.03
9523;BME280;63165;43.016;25.784;2023-03-11T04:13:32;97887.09;;;16.60;63.39
9523;BME280;63165;43.016;25.784;2023-03-11T04:16:02;97883.03;;;16.56;63.74
9523;BME280;63165;43.016;25.784;2023-03-11T04:18:30;97885.56;;;16.57;63.58
9523;BME280;63165;43.016;25.784;2023-03-11T04:20:57;97883.03;;;16.56;64.03
9523;BME280;63165;43.016;25.784;2023-03-11T04:23:25;97881.00;;;16.59;63.90
9523;BME280;63165;43.016;25.784;2023-03-11T04:25:54;97880.75;;;16.62;62.95
9523;BME280;63165;43.016;25.784;2023-03-11T04:28:21;97877.88;;;16.65;62.88
9523;BME280;63165;43.016;25.784;2023-03-11T04:30:49;97877.03;;;16.65;62.67
9523;BME280;63165;43.016;25.784;2023-03-11T04:33:16;97880.41;;;16.67;62.39
9523;BME280;63165;43.016;25.784;2023-03-11T04:35:43;97885.22;;;16.73;62.29
9523;BME280;63165;43.016;25.784;2023-03-11T04:38:11;97908.03;;;16.74;62.23
9523;BME280;63165;43.016;25.784;2023-03-11T04:40:38;97902.59;;;16.76;62.20
9523;BME280;63165;43.016;25.784;2023-03-11T04:43:07;97921.22;;;16.74;62.25
9523;BME280;63165;43.016;25.784;2023-03-11T04:45:37;97926.63;;;16.73;62.23
9523;BME280;63165;43.016;25.784;2023-03-11T04:48:04;97924.78;;;16.62;62.36
9523;BME280;63165;43.016;25.784;2023-03-11T04:50:32;97939.78;;;16.61;63.04
9523;BME280;63165;43.016;25.784;2023-03-11T04:52:59;97950.78;;;16.55;63.27
9523;BME280;63165;43.016;25.784;2023-03-11T04:55:27;97961.72;;;16.50;63.53
9523;BME280;63165;43.016;25.784;2023-03-11T04:57:54;97967.34;;;16.46;63.97
9523;BME280;63165;43.016;25.784;2023-03-11T05:00:23;97973.66;;;16.43;64.57
9523;BME280;63165;43.016;25.784;2023-03-11T05:02:51;97979.19;;;16.40;65.13
9523;BME280;63165;43.016;25.784;2023-03-11T05:05:19;97984.91;;;16.34;65.21
9523;BME280;63165;43.016;25.784;2023-03-11T05:07:46;97982.94;;;16.25;65.48
9523;BME280;63165;43.016;25.784;2023-03-11T05:10:15;97995.66;;;16.20;65.27
9523;BME280;63165;43.016;25.784;2023-03-11T05:12:47;98002.72;;;16.06;66.00
9523;BME280;63165;43.016;25.784;2023-03-11T05:15:14;98001.94;;;15.93;66.18
9523;BME280;63165;43.016;25.784;2023-03-11T05:17:43;98005.22;;;15.84;66.67
9523;BME280;63165;43.016;25.784;2023-03-11T05:20:11;98018.22;;;15.74;66.96
9523;BME280;63165;43.016;25.784;2023-03-11T05:22:39;98013.56;;;15.65;67.36
9523;BME280;63165;43.016;25.784;2023-03-11T05:25:07;98001.75;;;15.45;67.31
9523;BME280;63165;43.016;25.784;2023-03-11T05:27:34;98024.53;;;15.46;67.68
9523;BME280;63165;43.016;25.784;2023-03-11T05:30:02;98036.16;;;15.43;68.01
9523;BME280;63165;43.016;25.784;2023-03-11T05:32:30;98039.00;;;15.40;68.43
9523;BME280;63165;43.016;25.784;2023-03-11T05:34:59;98030.78;;;15.32;68.86
9523;BME280;63165;43.016;25.784;2023-03-11T05:37:27;98049.09;;;15.33;69.19
9523;BME280;63165;43.016;25.784;2023-03-11T05:39:56;98046.59;;;15.32;69.34
9523;BME280;63165;43.016;25.784;2023-03-11T05:42:24;98054.78;;;15.27;69.77
9523;BME280;63165;43.016;25.784;2023-03-11T05:44:51;98037.19;;;15.15;69.81
9523;BME280;63165;43.016;25.784;2023-03-11T05:47:19;98057.31;;;15.16;70.10
9523;BME280;63165;43.016;25.784;2023-03-11T05:49:47;98068.91;;;15.13;70.31
9523;BME280;63165;43.016;25.784;2023-03-11T05:52:16;98062.53;;;15.03;71.19
9523;BME280;63165;43.016;25.784;2023-03-11T05:54:44;98070.91;;;15.10;71.04
9523;BME280;63165;43.016;25.784;2023-03-11T05:57:11;98074.47;;;15.09;71.33
9523;BME280;63165;43.016;25.784;2023-03-11T05:59:38;98077.09;;;15.09;71.96
9523;BME280;63165;43.016;25.784;2023-03-11T06:02:06;98082.34;;;15.09;72.69
9523;BME280;63165;43.016;25.784;2023-03-11T06:04:33;98084.25;;;15.07;72.54
9523;BME280;63165;43.016;25.784;2023-03-11T06:07:01;98088.13;;;15.01;72.82
9523;BME280;63165;43.016;25.784;2023-03-11T06:09:30;98097.19;;;14.97;74.14
9523;BME280;63165;43.016;25.784;2023-03-11T06:11:57;98092.22;;;14.92;74.37
9523;BME280;63165;43.016;25.784;2023-03-11T06:14:25;98098.63;;;14.88;75.41
9523;BME280;63165;43.016;25.784;2023-03-11T06:16:56;98089.75;;;14.77;76.62
9523;BME280;63165;43.016;25.784;2023-03-11T06:19:23;98080.66;;;14.68;77.59
9523;BME280;63165;43.016;25.784;2023-03-11T06:21:51;98069.31;;;14.53;78.75
9523;BME280;63165;43.016;25.784;2023-03-11T06:24:18;98081.72;;;14.51;79.65
9523;BME280;63165;43.016;25.784;2023-03-11T06:26:50;98071.59;;;14.45;81.19
9523;BME280;63165;43.016;25.784;2023-03-11T06:29:17;98077.69;;;14.45;81.26
9523;BME280;63165;43.016;25.784;2023-03-11T06:31:46;98086.47;;;14.46;82.15
9523;BME280;63165;43.016;25.784;2023-03-11T06:34:13;98070.88;;;14.43;83.16
9523;BME280;63165;43.016;25.784;2023-03-11T06:36:41;98088.44;;;14.42;83.41
9523;BME280;63165;43.016;25.784;2023-03-11T06:39:11;98079.03;;;14.38;84.31
9523;BME280;63165;43.016;25.784;2023-03-11T06:41:39;98082.72;;;14.35;85.46
9523;BME280;63165;43.016;25.784;2023-03-11T06:44:08;98082.72;;;14.35;86.65
9523;BME280;63165;43.016;25.784;2023-03-11T06:46:36;98093.69;;;14.42;86.23
9523;BME280;63165;43.016;25.784;2023-03-11T06:49:04;98089.84;;;14.48;86.93
9523;BME280;63165;43.016;25.784;2023-03-11T06:51:31;98092.81;;;14.56;87.47
9523;BME280;63165;43.016;25.784;2023-03-11T06:53:58;98095.16;;;14.61;88.12
9523;BME280;63165;43.016;25.784;2023-03-11T06:56:26;98086.97;;;14.65;88.70
9523;BME280;63165;43.016;25.784;2023-03-11T06:58:53;98093.81;;;14.68;89.30
9523;BME280;63165;43.016;25.784;2023-03-11T07:01:24;98102.28;;;14.73;89.61
9523;BME280;63165;43.016;25.784;2023-03-11T07:03:52;98106.19;;;14.80;89.83
9523;BME280;63165;43.016;25.784;2023-03-11T07:06:23;98103.06;;;14.88;89.49
9523;BME280;63165;43.016;25.784;2023-03-11T07:08:51;98111.69;;;14.90;89.67
9523;BME280;63165;43.016;25.784;2023-03-11T07:11:22;98114.06;;;14.94;89.90
9523;BME280;63165;43.016;25.784;2023-03-11T07:13:52;98106.78;;;14.98;89.43
9523;BME280;63165;43.016;25.784;2023-03-11T07:16:23;98112.16;;;14.97;90.20
9523;BME280;63165;43.016;25.784;2023-03-11T07:18:51;98122.47;;;15.00;90.31
9523;BME280;63165;43.016;25.784;2023-03-11T07:21:20;98122.28;;;15.03;90.45
9523;BME280;63165;43.016;25.784;2023-03-11T07:23:51;98120.78;;;14.99;91.15
9523;BME280;63165;43.016;25.784;2023-03-11T07:26:20;98127.88;;;15.11;90.62
9523;BME280;63165;43.016;25.784;2023-03-11T07:28:47;98124.41;;;15.10;90.44
9523;BME280;63165;43.016;25.784;2023-03-11T07:44:16;98081.34;;;15.37;88.25
9523;BME280;63165;43.016;25.784;2023-03-11T07:47:06;98074.31;;;15.50;87.29
9523;BME280;63165;43.016;25.784;2023-03-11T07:49:53;98074.91;;;15.67;87.24
9523;BME280;63165;43.016;25.784;2023-03-11T07:52:37;98070.66;;;15.79;87.00
9523;BME280;63165;43.016;25.784;2023-03-11T07:55:26;98058.91;;;15.96;86.95
9523;BME280;63165;43.016;25.784;2023-03-11T07:58:08;98068.16;;;16.14;85.84
9523;BME280;63165;43.016;25.784;2023-03-11T08:01:06;98066.63;;;16.23;84.70
9523;BME280;63165;43.016;25.784;2023-03-11T08:03:47;98075.50;;;16.35;84.33
9523;BME280;63165;43.016;25.784;2023-03-11T08:06:31;98069.81;;;16.52;82.81
9523;BME280;63165;43.016;25.784;2023-03-11T08:17:47;98071.41;;;17.03;80.19
9523;BME280;63165;43.016;25.784;2023-03-11T08:20:18;98055.47;;;17.16;79.13
9523;BME280;63165;43.016;25.784;2023-03-11T08:22:46;98008.94;;;17.02;77.38
9523;BME280;63165;43.016;25.784;2023-03-11T08:25:27;98054.69;;;17.38;76.05
9523;BME280;63165;43.016;25.784;2023-03-11T08:27:57;98072.59;;;17.45;74.55
9523;BME280;63165;43.016;25.784;2023-03-11T08:30:26;98042.47;;;17.13;74.29
9523;BME280;63165;43.016;25.784;2023-03-11T08:32:55;98070.56;;;17.60;73.35
9523;BME280;63165;43.016;25.784;2023-03-11T08:35:35;97975.50;;;17.25;72.76
9523;BME280;63165;43.016;25.784;2023-03-11T08:38:02;97961.38;;;17.02;72.13
9523;BME280;63165;43.016;25.784;2023-03-11T08:40:34;97918.88;;;16.82;70.50
9523;BME280;63165;43.016;25.784;2023-03-11T08:43:02;98030.91;;;17.49;70.22
9523;BME280;63165;43.016;25.784;2023-03-11T08:45:30;98071.28;;;17.62;69.42
9523;BME280;63165;43.016;25.784;2023-03-11T08:48:01;98041.38;;;17.62;68.11
9523;BME280;63165;43.016;25.784;2023-03-11T08:50:30;98032.22;;;17.55;67.87
9523;BME280;63165;43.016;25.784;2023-03-11T08:52:59;98038.72;;;17.73;68.03
9523;BME280;63165;43.016;25.784;2023-03-11T08:55:31;98029.81;;;17.74;67.51
9523;BME280;63165;43.016;25.784;2023-03-11T08:57:59;97893.06;;;16.97;67.90
9523;BME280;63165;43.016;25.784;2023-03-11T09:00:26;98016.72;;;17.61;68.09
9523;BME280;63165;43.016;25.784;2023-03-11T09:02:54;97995.31;;;17.76;67.94
9523;BME280;63165;43.016;25.784;2023-03-11T09:05:23;98012.13;;;17.75;66.66
9523;BME280;63165;43.016;25.784;2023-03-11T09:07:51;98010.25;;;17.77;66.25
9523;BME280;63165;43.016;25.784;2023-03-11T09:10:19;98015.88;;;17.72;66.66
9523;BME280;63165;43.016;25.784;2023-03-11T09:12:47;98021.06;;;17.85;66.26
9523;BME280;63165;43.016;25.784;2023-03-11T09:15:15;98009.75;;;17.72;65.04
9523;BME280;63165;43.016;25.784;2023-03-11T09:17:42;97965.88;;;17.58;63.81
9523;BME280;63165;43.016;25.784;2023-03-11T09:20:14;98026.69;;;17.69;62.37
9523;BME280;63165;43.016;25.784;2023-03-11T09:22:44;98008.66;;;17.52;60.61
9523;BME280;63165;43.016;25.784;2023-03-11T09:25:12;98018.75;;;17.69;59.96
9523;BME280;63165;43.016;25.784;2023-03-11T09:27:45;98004.94;;;17.65;60.35
9523;BME280;63165;43.016;25.784;2023-03-11T09:30:13;98010.97;;;17.68;60.16
9523;BME280;63165;43.016;25.784;2023-03-11T09:32:41;98012.75;;;17.67;60.52
9523;BME280;63165;43.016;25.784;2023-03-11T09:35:09;97952.53;;;17.25;59.76
9523;BME280;63165;43.016;25.784;2023-03-11T09:37:40;97957.94;;;17.35;59.51
9523;BME280;63165;43.016;25.784;2023-03-11T09:40:16;97990.53;;;17.70;59.47
9523;BME280;63165;43.016;25.784;2023-03-11T09:42:56;97991.56;;;17.78;58.77
9523;BME280;63165;43.016;25.784;2023-03-11T09:45:33;97944.09;;;17.65;58.43
9523;BME280;63165;43.016;25.784;2023-03-11T09:48:09;97954.69;;;17.77;59.51
9523;BME280;63165;43.016;25.784;2023-03-11T09:50:47;97987.50;;;17.97;59.08
9523;BME280;63165;43.016;25.784;2023-03-11T09:53:30;97936.03;;;17.78;57.80
9523;BME280;63165;43.016;25.784;2023-03-11T09:56:07;97914.06;;;17.66;58.15
9523;BME280;63165;43.016;25.784;2023-03-11T09:58:42;97948.81;;;17.84;57.86
9523;BME280;63165;43.016;25.784;2023-03-11T10:01:16;97969.22;;;18.05;58.04
9523;BME280;63165;43.016;25.784;2023-03-11T10:03:47;97925.47;;;17.78;57.47
9523;BME280;63165;43.016;25.784;2023-03-11T10:06:27;97965.34;;;18.09;57.20
9523;BME280;63165;43.016;25.784;2023-03-11T10:09:03;97961.41;;;18.03;56.59
9523;BME280;63165;43.016;25.784;2023-03-11T10:11:48;97930.75;;;17.78;56.54
9523;BME280;63165;43.016;25.784;2023-03-11T10:14:32;97954.06;;;18.07;56.27
9523;BME280;63165;43.016;25.784;2023-03-11T10:17:11;97917.41;;;17.80;55.85
9523;BME280;63165;43.016;25.784;2023-03-11T10:23:08;97929.22;;;17.87;55.51
9523;BME280;63165;43.016;25.784;2023-03-11T10:25:55;97935.13;;;18.23;54.38
9523;BME280;63165;43.016;25.784;2023-03-11T10:28:30;97939.34;;;18.26;55.13
9523;BME280;63165;43.016;25.784;2023-03-11T10:31:05;97839.94;;;17.57;54.75
9523;BME280;63165;43.016;25.784;2023-03-11T10:33:38;97948.38;;;18.12;54.68
9523;BME280;63165;43.016;25.784;2023-03-11T10:36:14;97834.56;;;17.47;55.01
9523;BME280;63165;43.016;25.784;2023-03-11T10:38:57;97889.88;;;17.94;55.80
9523;BME280;63165;43.016;25.784;2023-03-11T10:41:38;97918.75;;;18.18;56.37
9523;BME280;63165;43.016;25.784;2023-03-11T10:44:16;97890.84;;;17.93;56.56
9523;BME280;63165;43.016;25.784;2023-03-11T10:46:46;97859.81;;;17.83;56.33
9523;BME280;63165;43.016;25.784;2023-03-11T10:49:23;97914.88;;;18.33;56.60
9523;BME280;63165;43.016;25.784;2023-03-11T10:52:07;97776.25;;;17.49;55.97
9523;BME280;63165;43.016;25.784;2023-03-11T10:54:44;97856.91;;;17.98;56.41
9523;BME280;63165;43.016;25.784;2023-03-11T10:57:25;97928.34;;;18.30;55.62
9523;BME280;63165;43.016;25.784;2023-03-11T10:59:56;97856.09;;;17.86;55.74
9523;BME280;63165;43.016;25.784;2023-03-11T11:02:27;97920.75;;;18.37;55.60
9523;BME280;63165;43.016;25.784;2023-03-11T11:05:17;97895.94;;;18.17;55.12
9523;BME280;63165;43.016;25.784;2023-03-11T11:08:06;97896.06;;;18.15;55.05
9523;BME280;63165;43.016;25.784;2023-03-11T11:10:36;97902.53;;;18.22;54.82
9523;BME280;63165;43.016;25.784;2023-03-11T11:13:24;97916.06;;;18.40;54.05
9523;BME280;63165;43.016;25.784;2023-03-11T11:16:32;97913.13;;;18.43;54.83
9523;BME280;63165;43.016;25.784;2023-03-11T11:19:12;97903.13;;;18.47;53.85
9523;BME280;63165;43.016;25.784;2023-03-11T11:21:44;97807.44;;;17.77;54.45
9523;BME280;63165;43.016;25.784;2023-03-11T11:24:21;97874.50;;;18.20;54.16
9523;BME280;63165;43.016;25.784;2023-03-11T11:27:09;97909.19;;;18.59;53.97
9523;BME280;63165;43.016;25.784;2023-03-11T11:29:45;97918.06;;;18.69;54.19
9523;BME280;63165;43.016;25.784;2023-03-11T11:32:24;97905.69;;;18.79;52.61
9523;BME280;63165;43.016;25.784;2023-03-11T11:34:57;97904.38;;;18.85;52.39
9523;BME280;63165;43.016;25.784;2023-03-11T11:37:27;97899.81;;;18.87;51.52
9523;BME280;63165;43.016;25.784;2023-03-11T11:40:05;97891.47;;;18.92;50.66
9523;BME280;63165;43.016;25.784;2023-03-11T11:42:41;97887.13;;;18.91;50.95
9523;BME280;63165;43.016;25.784;2023-03-11T11:45:15;97840.63;;;18.56;49.72
9523;BME280;63165;43.016;25.784;2023-03-11T11:47:51;97867.81;;;18.58;49.59
9523;BME280;63165;43.016;25.784;2023-03-11T11:50:29;97835.63;;;18.62;50.20
9523;BME280;63165;43.016;25.784;2023-03-11T11:53:08;97845.75;;;18.78;49.80
9523;BME280;63165;43.016;25.784;2023-03-11T11:55:40;97870.50;;;19.10;49.33
9523;BME280;63165;43.016;25.784;2023-03-11T11:58:18;97861.91;;;18.96;49.49
9523;BME280;63165;43.016;25.784;2023-03-11T12:00:57;97911.47;;;19.36;49.65
9523;BME280;63165;43.016;25.784;2023-03-11T12:03:51;97893.72;;;19.27;48.57
9523;BME280;63165;43.016;25.784;2023-03-11T12:06:28;97908.78;;;19.27;48.55
9523;BME280;63165;43.016;25.784;2023-03-11T12:09:04;97875.38;;;19.14;48.01
9523;BME280;63165;43.016;25.784;2023-03-11T12:11:38;97880.78;;;19.03;48.41
9523;BME280;63165;43.016;25.784;2023-03-11T12:14:13;97881.22;;;19.08;47.42
9523;BME280;63165;43.016;25.784;2023-03-11T12:16:50;97880.16;;;18.90;47.29
9523;BME280;63165;43.016;25.784;2023-03-11T12:19:33;97925.41;;;19.08;47.55
9523;BME280;63165;43.016;25.784;2023-03-11T12:25:37;97885.00;;;18.85;47.85
9523;BME280;63165;43.016;25.784;2023-03-11T12:28:18;97890.09;;;18.97;47.95
9523;BME280;63165;43.016;25.784;2023-03-11T12:30:49;97910.16;;;19.00;48.05
9523;BME280;63165;43.016;25.784;2023-03-11T12:33:26;97919.72;;;19.12;47.79
9523;BME280;63165;43.016;25.784;2023-03-11T12:36:00;97927.44;;;19.15;47.25
9523;BME280;63165;43.016;25.784;2023-03-11T12:38:31;97881.81;;;18.91;46.96
9523;BME280;63165;43.016;25.784;2023-03-11T12:41:24;97929.38;;;19.13;47.71
9523;BME280;63165;43.016;25.784;2023-03-11T12:44:00;97952.19;;;19.05;48.58
9523;BME280;63165;43.016;25.784;2023-03-11T12:47:10;97874.34;;;18.54;49.75
9523;BME280;63165;43.016;25.784;2023-03-11T12:49:45;97935.13;;;18.76;49.34
9523;BME280;63165;43.016;25.784;2023-03-11T12:52:50;97930.13;;;18.41;49.48
9523;BME280;63165;43.016;25.784;2023-03-11T12:55:36;97955.88;;;18.39;49.38
9523;BME280;63165;43.016;25.784;2023-03-11T12:58:39;97985.53;;;18.21;50.10
9523;BME280;63165;43.016;25.784;2023-03-11T13:04:19;97980.41;;;17.41;50.92
9523;BME280;63165;43.016;25.784;2023-03-11T13:10:44;97881.97;;;16.23;53.38
9523;BME280;63165;43.016;25.784;2023-03-11T13:24:46;97968.56;;;15.81;59.33
9523;BME280;63165;43.016;25.784;2023-03-11T13:44:54;97967.78;;;16.16;65.14
9523;BME280;63165;43.016;25.784;2023-03-11T13:51:26;97937.97;;;16.26;65.17
9523;BME280;63165;43.016;25.784;2023-03-11T13:54:57;97965.66;;;16.45;65.16
9523;BME280;63165;43.016;25.784;2023-03-11T13:58:28;97965.72;;;16.67;64.72
9523;BME280;63165;43.016;25.784;2023-03-11T14:01:19;97962.91;;;16.82;64.31
9523;BME280;63165;43.016;25.784;2023-03-11T14:03:52;97987.94;;;17.00;63.41
9523;BME280;63165;43.016;25.784;2023-03-11T14:06:35;97928.53;;;16.71;63.75
9523;BME280;63165;43.016;25.784;2023-03-11T14:09:21;97904.56;;;16.85;63.11
9523;BME280;63165;43.016;25.784;2023-03-11T14:12:13;97899.91;;;17.00;62.71
9523;BME280;63165;43.016;25.784;2023-03-11T14:17:33;97899.81;;;17.01;59.84
9523;BME280;63165;43.016;25.784;2023-03-11T14:20:23;97935.84;;;17.25;58.45
9523;BME280;63165;43.016;25.784;2023-03-11T14:22:57;97854.28;;;16.86;57.59
9523;BME280;63165;43.016;25.784;2023-03-11T14:28:25;97900.91;;;17.33;55.75
9523;BME280;63165;43.016;25.784;2023-03-11T14:31:22;97879.50;;;17.13;56.23
9523;BME280;63165;43.016;25.784;2023-03-11T14:33:59;97973.66;;;17.82;56.07
9523;BME280;63165;43.016;25.784;2023-03-11T14:36:38;97877.09;;;17.33;56.48
9523;BME280;63165;43.016;25.784;2023-03-11T14:39:25;97946.78;;;17.77;56.53
9523;BME280;63165;43.016;25.784;2023-03-11T14:42:14;97975.09;;;17.97;56.12